sensor_id;sensor_type;location;lat;lon;timestamp;P1;durP1;ratioP1;P2;durP2;ratioP2
5297;SDS011;14738;42.668;23.250;2023-05-27T00:00:00;8.97;;;8.27;;
5297;SDS011;14738;42.668;23.250;2023-05-27T00:02:27;10.73;;;8.77;;
5297;SDS011;14738;42.668;23.250;2023-05-27T00:04:52;9.13;;;8.23;;
5297;SDS011;14738;42.668;23.250;2023-05-27T00:07:17;9.77;;;9.00;;
5297;SDS011;14738;42.668;23.250;2023-05-27T00:09:43;11.03;;;9.90;;
5297;SDS011;14738;42.668;23.250;2023-05-27T00:12:08;16.60;;;12.87;;
5297;SDS011;14738;42.668;23.250;2023-05-27T00:14:34;14.53;;;13.07;;
5297;SDS011;14738;42.668;23.250;2023-05-27T00:17:00;15.80;;;13.97;;
5297;SDS011;14738;42.668;23.250;2023-05-27T00:19:26;16.77;;;15.07;;
5297;SDS011;14738;42.668;23.250;2023-05-27T00:21:54;22.60;;;17.77;;
5297;SDS011;14738;42.668;23.250;2023-05-27T00:24:20;17.97;;;15.60;;
5297;SDS011;14738;42.668;23.250;2023-05-27T00:26:46;16.63;;;15.13;;
5297;SDS011;14738;42.668;23.250;2023-05-27T00:29:12;16.63;;;14.80;;
5297;SDS011;14738;42.668;23.250;2023-05-27T00:31:38;19.23;;;17.00;;
5297;SDS011;14738;42.668;23.250;2023-05-27T00:34:03;18.27;;;16.47;;
5297;SDS011;14738;42.668;23.250;2023-05-27T00:36:29;18.23;;;16.30;;
5297;SDS011;14738;42.668;23.250;2023-05-27T00:38:56;15.30;;;13.80;;
5297;SDS011;14738;42.668;23.250;2023-05-27T00:41:22;11.30;;;10.30;;
5297;SDS011;14738;42.668;23.250;2023-05-27T00:43:48;9.77;;;8.97;;
5297;SDS011;14738;42.668;23.250;2023-05-27T00:46:13;10.60;;;9.70;;
5297;SDS011;14738;42.668;23.250;2023-05-27T00:48:40;8.70;;;8.00;;
5297;SDS011;14738;42.668;23.250;2023-05-27T00:51:05;9.27;;;8.50;;
5297;SDS011;14738;42.668;23.250;2023-05-27T00:53:33;7.97;;;7.23;;
5297;SDS011;14738;42.668;23.250;2023-05-27T00:56:10;8.30;;;7.60;;
5297;SDS011;14738;42.668;23.250;2023-05-27T00:58:38;7.10;;;6.50;;
5297;SDS011;14738;42.668;23.250;2023-05-27T01:01:03;6.57;;;5.83;;
5297;SDS011;14738;42.668;23.250;2023-05-27T01:03:30;7.10;;;5.93;;
5297;SDS011;14738;42.668;23.250;2023-05-27T01:06:42;6.40;;;5.80;;
5297;SDS011;14738;42.668;23.250;2023-05-27T01:09:03;6.07;;;5.63;;
5297;SDS011;14738;42.668;23.250;2023-05-27T01:11:38;6.40;;;5.90;;
5297;SDS011;14738;42.668;23.250;2023-05-27T01:14:09;6.03;;;5.63;;
5297;SDS011;14738;42.668;23.250;2023-05-27T01:16:38;5.80;;;5.40;;
5297;SDS011;14738;42.668;23.250;2023-05-27T01:19:11;5.07;;;4.70;;
5297;SDS011;14738;42.668;23.250;2023-05-27T01:21:39;4.53;;;4.23;;
5297;SDS011;14738;42.668;23.250;2023-05-27T01:24:09;4.80;;;4.30;;
5297;SDS011;14738;42.668;23.250;2023-05-27T01:26:36;4.50;;;4.20;;
5297;SDS011;14738;42.668;23.250;2023-05-27T01:29:01;4.70;;;4.40;;
5297;SDS011;14738;42.668;23.250;2023-05-27T01:32:10;5.00;;;4.60;;
5297;SDS011;14738;42.668;23.250;2023-05-27T01:34:22;4.87;;;4.57;;
5297;SDS011;14738;42.668;23.250;2023-05-27T01:36:55;4.63;;;4.23;;
5297;SDS011;14738;42.668;23.250;2023-05-27T01:39:24;4.67;;;4.40;;
5297;SDS011;14738;42.668;23.250;2023-05-27T01:41:51;5.13;;;4.83;;
5297;SDS011;14738;42.668;23.250;2023-05-27T01:44:17;5.80;;;5.40;;
5297;SDS011;14738;42.668;23.250;2023-05-27T01:46:44;5.90;;;5.50;;
5297;SDS011;14738;42.668;23.250;2023-05-27T01:49:09;5.03;;;4.73;;
5297;SDS011;14738;42.668;23.250;2023-05-27T01:51:35;5.80;;;5.30;;
5297;SDS011;14738;42.668;23.250;2023-05-27T01:54:01;5.77;;;5.37;;
5297;SDS011;14738;42.668;23.250;2023-05-27T01:56:27;6.80;;;5.37;;
5297;SDS011;14738;42.668;23.250;2023-05-27T01:58:54;5.33;;;5.00;;
5297;SDS011;14738;42.668;23.250;2023-05-27T02:01:20;5.37;;;5.00;;
5297;SDS011;14738;42.668;23.250;2023-05-27T02:03:47;15.03;;;4.60;;
5297;SDS011;14738;42.668;23.250;2023-05-27T02:06:12;7.00;;;6.50;;
5297;SDS011;14738;42.668;23.250;2023-05-27T02:08:38;5.20;;;4.80;;
5297;SDS011;14738;42.668;23.250;2023-05-27T02:11:03;5.67;;;5.17;;
5297;SDS011;14738;42.668;23.250;2023-05-27T02:13:29;5.43;;;5.13;;
5297;SDS011;14738;42.668;23.250;2023-05-27T02:15:54;5.60;;;5.10;;
5297;SDS011;14738;42.668;23.250;2023-05-27T02:18:20;5.93;;;5.53;;
5297;SDS011;14738;42.668;23.250;2023-05-27T02:20:46;5.17;;;4.87;;
5297;SDS011;14738;42.668;23.250;2023-05-27T02:23:11;5.60;;;5.20;;
5297;SDS011;14738;42.668;23.250;2023-05-27T02:25:37;5.00;;;4.70;;
5297;SDS011;14738;42.668;23.250;2023-05-27T02:28:03;6.23;;;5.07;;
5297;SDS011;14738;42.668;23.250;2023-05-27T02:30:29;7.47;;;5.60;;
5297;SDS011;14738;42.668;23.250;2023-05-27T02:32:56;5.77;;;5.17;;
5297;SDS011;14738;42.668;23.250;2023-05-27T02:35:22;5.63;;;5.23;;
5297;SDS011;14738;42.668;23.250;2023-05-27T02:37:47;5.17;;;4.70;;
5297;SDS011;14738;42.668;23.250;2023-05-27T02:40:22;7.00;;;6.30;;
5297;SDS011;14738;42.668;23.250;2023-05-27T02:42:49;5.57;;;5.10;;
5297;SDS011;14738;42.668;23.250;2023-05-27T02:45:14;7.10;;;5.77;;
5297;SDS011;14738;42.668;23.250;2023-05-27T02:47:39;6.07;;;5.57;;
5297;SDS011;14738;42.668;23.250;2023-05-27T02:50:05;6.27;;;5.70;;
5297;SDS011;14738;42.668;23.250;2023-05-27T02:52:31;5.63;;;5.17;;
5297;SDS011;14738;42.668;23.250;2023-05-27T02:54:56;6.47;;;5.87;;
5297;SDS011;14738;42.668;23.250;2023-05-27T02:57:22;6.30;;;5.70;;
5297;SDS011;14738;42.668;23.250;2023-05-27T02:59:47;5.03;;;4.73;;
5297;SDS011;14738;42.668;23.250;2023-05-27T03:02:12;6.10;;;5.63;;
5297;SDS011;14738;42.668;23.250;2023-05-27T03:04:38;5.60;;;5.20;;
5297;SDS011;14738;42.668;23.250;2023-05-27T03:07:04;5.43;;;4.97;;
5297;SDS011;14738;42.668;23.250;2023-05-27T03:09:30;5.73;;;5.23;;
5297;SDS011;14738;42.668;23.250;2023-05-27T03:11:55;5.77;;;5.37;;
5297;SDS011;14738;42.668;23.250;2023-05-27T03:14:21;5.70;;;5.30;;
5297;SDS011;14738;42.668;23.250;2023-05-27T03:16:46;5.20;;;4.90;;
5297;SDS011;14738;42.668;23.250;2023-05-27T03:19:11;5.30;;;4.80;;
5297;SDS011;14738;42.668;23.250;2023-05-27T03:21:37;4.90;;;4.60;;
5297;SDS011;14738;42.668;23.250;2023-05-27T03:24:02;5.77;;;5.17;;
5297;SDS011;14738;42.668;23.250;2023-05-27T03:26:28;4.37;;;4.17;;
5297;SDS011;14738;42.668;23.250;2023-05-27T03:28:53;6.10;;;4.70;;
5297;SDS011;14738;42.668;23.250;2023-05-27T03:31:19;4.70;;;4.40;;
5297;SDS011;14738;42.668;23.250;2023-05-27T03:33:44;4.17;;;3.83;;
5297;SDS011;14738;42.668;23.250;2023-05-27T03:36:10;4.80;;;4.50;;
5297;SDS011;14738;42.668;23.250;2023-05-27T03:38:35;4.93;;;4.60;;
5297;SDS011;14738;42.668;23.250;2023-05-27T03:41:00;4.77;;;4.37;;
5297;SDS011;14738;42.668;23.250;2023-05-27T03:43:26;4.40;;;4.10;;
5297;SDS011;14738;42.668;23.250;2023-05-27T03:45:51;4.77;;;4.47;;
5297;SDS011;14738;42.668;23.250;2023-05-27T03:48:17;5.50;;;5.10;;
5297;SDS011;14738;42.668;23.250;2023-05-27T03:50:42;5.30;;;4.80;;
5297;SDS011;14738;42.668;23.250;2023-05-27T03:53:08;5.33;;;5.03;;
5297;SDS011;14738;42.668;23.250;2023-05-27T03:55:33;4.70;;;4.40;;
5297;SDS011;14738;42.668;23.250;2023-05-27T03:57:58;6.30;;;4.90;;
5297;SDS011;14738;42.668;23.250;2023-05-27T04:00:24;7.07;;;5.80;;
5297;SDS011;14738;42.668;23.250;2023-05-27T04:02:49;6.13;;;5.63;;
5297;SDS011;14738;42.668;23.250;2023-05-27T04:05:15;5.50;;;5.00;;
5297;SDS011;14738;42.668;23.250;2023-05-27T04:07:41;4.63;;;4.33;;
5297;SDS011;14738;42.668;23.250;2023-05-27T04:10:07;5.47;;;5.07;;
5297;SDS011;14738;42.668;23.250;2023-05-27T04:12:33;5.00;;;4.60;;
5297;SDS011;14738;42.668;23.250;2023-05-27T04:14:58;6.63;;;4.97;;
5297;SDS011;14738;42.668;23.250;2023-05-27T04:17:23;5.30;;;4.90;;
5297;SDS011;14738;42.668;23.250;2023-05-27T04:19:49;5.60;;;5.10;;
5297;SDS011;14738;42.668;23.250;2023-05-27T04:22:14;6.50;;;6.00;;
5297;SDS011;14738;42.668;23.250;2023-05-27T04:24:40;5.87;;;5.40;;
5297;SDS011;14738;42.668;23.250;2023-05-27T04:27:06;6.00;;;5.50;;
5297;SDS011;14738;42.668;23.250;2023-05-27T04:29:32;5.47;;;5.07;;
5297;SDS011;14738;42.668;23.250;2023-05-27T04:31:58;4.60;;;4.30;;
5297;SDS011;14738;42.668;23.250;2023-05-27T04:34:23;4.60;;;4.27;;
5297;SDS011;14738;42.668;23.250;2023-05-27T04:36:49;4.43;;;4.03;;
5297;SDS011;14738;42.668;23.250;2023-05-27T04:39:15;4.57;;;4.07;;
5297;SDS011;14738;42.668;23.250;2023-05-27T04:41:41;3.70;;;3.40;;
5297;SDS011;14738;42.668;23.250;2023-05-27T04:44:07;3.30;;;3.13;;
5297;SDS011;14738;42.668;23.250;2023-05-27T04:46:32;3.00;;;2.90;;
5297;SDS011;14738;42.668;23.250;2023-05-27T04:48:58;3.37;;;3.27;;
5297;SDS011;14738;42.668;23.250;2023-05-27T04:51:24;3.20;;;3.00;;
5297;SDS011;14738;42.668;23.250;2023-05-27T04:53:50;3.13;;;3.03;;
5297;SDS011;14738;42.668;23.250;2023-05-27T04:56:16;3.00;;;2.80;;
5297;SDS011;14738;42.668;23.250;2023-05-27T04:58:45;4.70;;;3.10;;
5297;SDS011;14738;42.668;23.250;2023-05-27T05:01:14;3.30;;;3.10;;
5297;SDS011;14738;42.668;23.250;2023-05-27T05:03:43;3.90;;;3.60;;
5297;SDS011;14738;42.668;23.250;2023-05-27T05:06:18;2.97;;;2.87;;
5297;SDS011;14738;42.668;23.250;2023-05-27T05:08:44;3.30;;;3.20;;
5297;SDS011;14738;42.668;23.250;2023-05-27T05:11:10;5.93;;;3.10;;
5297;SDS011;14738;42.668;23.250;2023-05-27T05:13:36;3.03;;;2.93;;
5297;SDS011;14738;42.668;23.250;2023-05-27T05:16:01;3.40;;;3.20;;
5297;SDS011;14738;42.668;23.250;2023-05-27T05:18:26;3.63;;;3.33;;
5297;SDS011;14738;42.668;23.250;2023-05-27T05:20:52;3.10;;;2.90;;
5297;SDS011;14738;42.668;23.250;2023-05-27T05:23:17;4.90;;;3.10;;
5297;SDS011;14738;42.668;23.250;2023-05-27T05:25:43;4.53;;;3.47;;
5297;SDS011;14738;42.668;23.250;2023-05-27T05:28:09;4.47;;;4.13;;
5297;SDS011;14738;42.668;23.250;2023-05-27T05:30:34;3.70;;;3.43;;
5297;SDS011;14738;42.668;23.250;2023-05-27T05:33:00;3.97;;;3.77;;
5297;SDS011;14738;42.668;23.250;2023-05-27T05:35:25;6.00;;;3.60;;
5297;SDS011;14738;42.668;23.250;2023-05-27T05:37:51;5.07;;;4.00;;
5297;SDS011;14738;42.668;23.250;2023-05-27T05:40:16;6.23;;;4.83;;
5297;SDS011;14738;42.668;23.250;2023-05-27T05:42:42;4.70;;;4.40;;
5297;SDS011;14738;42.668;23.250;2023-05-27T05:45:07;4.30;;;4.00;;
5297;SDS011;14738;42.668;23.250;2023-05-27T05:47:33;4.67;;;4.37;;
5297;SDS011;14738;42.668;23.250;2023-05-27T05:49:58;5.23;;;4.90;;
5297;SDS011;14738;42.668;23.250;2023-05-27T05:52:23;5.67;;;5.10;;
5297;SDS011;14738;42.668;23.250;2023-05-27T05:54:49;6.43;;;4.90;;
5297;SDS011;14738;42.668;23.250;2023-05-27T05:57:15;6.07;;;5.10;;
5297;SDS011;14738;42.668;23.250;2023-05-27T05:59:40;6.37;;;5.57;;
5297;SDS011;14738;42.668;23.250;2023-05-27T06:02:06;6.00;;;5.60;;
5297;SDS011;14738;42.668;23.250;2023-05-27T06:04:31;5.83;;;5.27;;
5297;SDS011;14738;42.668;23.250;2023-05-27T06:06:57;7.73;;;5.73;;
5297;SDS011;14738;42.668;23.250;2023-05-27T06:09:22;5.93;;;5.40;;
5297;SDS011;14738;42.668;23.250;2023-05-27T06:11:48;6.30;;;5.87;;
5297;SDS011;14738;42.668;23.250;2023-05-27T06:14:13;6.10;;;5.60;;
5297;SDS011;14738;42.668;23.250;2023-05-27T06:16:39;6.23;;;5.73;;
5297;SDS011;14738;42.668;23.250;2023-05-27T06:19:04;11.03;;;5.77;;
5297;SDS011;14738;42.668;23.250;2023-05-27T06:21:30;5.53;;;5.10;;
5297;SDS011;14738;42.668;23.250;2023-05-27T06:23:57;6.20;;;5.10;;
5297;SDS011;14738;42.668;23.250;2023-05-27T06:26:24;5.70;;;5.40;;
5297;SDS011;14738;42.668;23.250;2023-05-27T06:28:49;6.10;;;5.70;;
5297;SDS011;14738;42.668;23.250;2023-05-27T06:31:15;6.33;;;5.90;;
5297;SDS011;14738;42.668;23.250;2023-05-27T06:33:41;5.93;;;5.53;;
5297;SDS011;14738;42.668;23.250;2023-05-27T06:36:06;6.13;;;5.63;;
5297;SDS011;14738;42.668;23.250;2023-05-27T06:38:32;6.67;;;5.93;;
5297;SDS011;14738;42.668;23.250;2023-05-27T06:40:57;6.60;;;5.97;;
5297;SDS011;14738;42.668;23.250;2023-05-27T06:43:23;6.70;;;6.10;;
5297;SDS011;14738;42.668;23.250;2023-05-27T06:45:48;6.43;;;5.83;;
5297;SDS011;14738;42.668;23.250;2023-05-27T06:48:14;6.77;;;6.27;;
5297;SDS011;14738;42.668;23.250;2023-05-27T06:50:39;7.23;;;6.57;;
5297;SDS011;14738;42.668;23.250;2023-05-27T06:53:05;7.17;;;6.53;;
5297;SDS011;14738;42.668;23.250;2023-05-27T06:55:30;7.83;;;7.17;;
5297;SDS011;14738;42.668;23.250;2023-05-27T06:57:56;8.93;;;6.60;;
5297;SDS011;14738;42.668;23.250;2023-05-27T07:00:21;6.37;;;5.77;;
5297;SDS011;14738;42.668;23.250;2023-05-27T07:02:47;7.40;;;6.80;;
5297;SDS011;14738;42.668;23.250;2023-05-27T07:05:12;6.80;;;6.30;;
5297;SDS011;14738;42.668;23.250;2023-05-27T07:07:37;7.00;;;6.40;;
5297;SDS011;14738;42.668;23.250;2023-05-27T07:10:03;14.87;;;6.17;;
5297;SDS011;14738;42.668;23.250;2023-05-27T07:12:29;7.83;;;7.13;;
5297;SDS011;14738;42.668;23.250;2023-05-27T07:14:54;7.20;;;6.57;;
5297;SDS011;14738;42.668;23.250;2023-05-27T07:17:19;7.77;;;7.10;;
5297;SDS011;14738;42.668;23.250;2023-05-27T07:19:45;8.30;;;7.60;;
5297;SDS011;14738;42.668;23.250;2023-05-27T07:22:10;8.20;;;7.57;;
5297;SDS011;14738;42.668;23.250;2023-05-27T07:24:35;8.97;;;7.43;;
5297;SDS011;14738;42.668;23.250;2023-05-27T07:27:01;8.07;;;7.23;;
5297;SDS011;14738;42.668;23.250;2023-05-27T07:29:26;10.97;;;7.40;;
5297;SDS011;14738;42.668;23.250;2023-05-27T07:31:52;7.70;;;6.87;;
5297;SDS011;14738;42.668;23.250;2023-05-27T07:34:17;8.20;;;7.50;;
5297;SDS011;14738;42.668;23.250;2023-05-27T07:36:43;7.57;;;6.97;;
5297;SDS011;14738;42.668;23.250;2023-05-27T07:39:11;8.13;;;7.43;;
5297;SDS011;14738;42.668;23.250;2023-05-27T07:41:36;8.20;;;7.40;;
5297;SDS011;14738;42.668;23.250;2023-05-27T07:44:02;8.30;;;7.73;;
5297;SDS011;14738;42.668;23.250;2023-05-27T07:46:27;7.73;;;7.03;;
5297;SDS011;14738;42.668;23.250;2023-05-27T07:48:53;7.57;;;6.87;;
5297;SDS011;14738;42.668;23.250;2023-05-27T07:51:19;7.10;;;6.40;;
5297;SDS011;14738;42.668;23.250;2023-05-27T07:53:44;7.27;;;6.43;;
5297;SDS011;14738;42.668;23.250;2023-05-27T07:56:10;7.73;;;6.93;;
5297;SDS011;14738;42.668;23.250;2023-05-27T07:58:35;6.07;;;5.67;;
5297;SDS011;14738;42.668;23.250;2023-05-27T08:01:01;10.60;;;6.60;;
5297;SDS011;14738;42.668;23.250;2023-05-27T08:03:26;6.80;;;6.20;;
5297;SDS011;14738;42.668;23.250;2023-05-27T08:05:52;7.00;;;6.33;;
5297;SDS011;14738;42.668;23.250;2023-05-27T08:08:17;6.30;;;5.80;;
5297;SDS011;14738;42.668;23.250;2023-05-27T08:10:42;9.53;;;6.90;;
5297;SDS011;14738;42.668;23.250;2023-05-27T08:13:09;6.40;;;6.00;;
5297;SDS011;14738;42.668;23.250;2023-05-27T08:15:34;6.50;;;5.90;;
5297;SDS011;14738;42.668;23.250;2023-05-27T08:18:00;7.77;;;7.07;;
5297;SDS011;14738;42.668;23.250;2023-05-27T08:20:26;7.83;;;7.23;;
5297;SDS011;14738;42.668;23.250;2023-05-27T08:22:52;10.43;;;8.43;;
5297;SDS011;14738;42.668;23.250;2023-05-27T08:25:18;7.47;;;6.87;;
5297;SDS011;14738;42.668;23.250;2023-05-27T08:30:16;7.00;;;5.47;;
5297;SDS011;14738;42.668;23.250;2023-05-27T08:32:42;5.10;;;4.73;;
5297;SDS011;14738;42.668;23.250;2023-05-27T08:35:08;4.90;;;4.60;;
5297;SDS011;14738;42.668;23.250;2023-05-27T08:37:35;6.03;;;5.03;;
5297;SDS011;14738;42.668;23.250;2023-05-27T08:40:02;5.23;;;4.87;;
5297;SDS011;14738;42.668;23.250;2023-05-27T08:42:31;5.53;;;5.03;;
5297;SDS011;14738;42.668;23.250;2023-05-27T08:44:58;5.67;;;5.27;;
5297;SDS011;14738;42.668;23.250;2023-05-27T08:47:24;4.90;;;4.50;;
5297;SDS011;14738;42.668;23.250;2023-05-27T08:49:54;5.37;;;4.90;;
5297;SDS011;14738;42.668;23.250;2023-05-27T08:52:20;9.07;;;4.80;;
5297;SDS011;14738;42.668;23.250;2023-05-27T08:54:46;5.27;;;4.90;;
5297;SDS011;14738;42.668;23.250;2023-05-27T08:57:12;5.90;;;5.43;;
5297;SDS011;14738;42.668;23.250;2023-05-27T08:59:41;6.70;;;6.10;;
5297;SDS011;14738;42.668;23.250;2023-05-27T09:02:11;5.83;;;5.43;;
5297;SDS011;14738;42.668;23.250;2023-05-27T09:04:38;5.80;;;5.40;;
5297;SDS011;14738;42.668;23.250;2023-05-27T09:07:05;5.73;;;5.23;;
5297;SDS011;14738;42.668;23.250;2023-05-27T09:09:30;6.57;;;6.07;;
5297;SDS011;14738;42.668;23.250;2023-05-27T09:11:59;6.70;;;5.97;;
5297;SDS011;14738;42.668;23.250;2023-05-27T09:14:27;6.17;;;5.67;;
5297;SDS011;14738;42.668;23.250;2023-05-27T09:16:53;7.87;;;7.17;;
5297;SDS011;14738;42.668;23.250;2023-05-27T09:19:19;6.80;;;6.10;;
5297;SDS011;14738;42.668;23.250;2023-05-27T09:21:45;7.17;;;5.27;;
5297;SDS011;14738;42.668;23.250;2023-05-27T09:24:11;6.97;;;6.47;;
5297;SDS011;14738;42.668;23.250;2023-05-27T09:26:37;6.70;;;6.20;;
5297;SDS011;14738;42.668;23.250;2023-05-27T09:29:08;7.10;;;5.53;;
5297;SDS011;14738;42.668;23.250;2023-05-27T09:31:40;6.50;;;5.93;;
5297;SDS011;14738;42.668;23.250;2023-05-27T09:34:13;6.37;;;5.80;;
5297;SDS011;14738;42.668;23.250;2023-05-27T09:36:45;7.50;;;6.70;;
5297;SDS011;14738;42.668;23.250;2023-05-27T09:39:17;6.87;;;6.37;;
5297;SDS011;14738;42.668;23.250;2023-05-27T09:41:49;6.47;;;5.97;;
5297;SDS011;14738;42.668;23.250;2023-05-27T09:44:15;7.27;;;6.53;;
5297;SDS011;14738;42.668;23.250;2023-05-27T09:46:40;6.87;;;6.10;;
5297;SDS011;14738;42.668;23.250;2023-05-27T09:49:09;7.67;;;6.93;;
5297;SDS011;14738;42.668;23.250;2023-05-27T09:51:35;7.97;;;7.37;;
5297;SDS011;14738;42.668;23.250;2023-05-27T09:54:02;6.90;;;6.13;;
5297;SDS011;14738;42.668;23.250;2023-05-27T09:56:29;7.00;;;6.30;;
5297;SDS011;14738;42.668;23.250;2023-05-27T09:58:55;6.57;;;6.07;;
5297;SDS011;14738;42.668;23.250;2023-05-27T10:01:25;6.67;;;6.17;;
5297;SDS011;14738;42.668;23.250;2023-05-27T10:03:55;6.63;;;6.00;;
5297;SDS011;14738;42.668;23.250;2023-05-27T10:06:24;7.60;;;7.00;;
5297;SDS011;14738;42.668;23.250;2023-05-27T10:11:30;7.40;;;6.57;;
5297;SDS011;14738;42.668;23.250;2023-05-27T10:13:57;8.90;;;6.90;;
5297;SDS011;14738;42.668;23.250;2023-05-27T10:16:26;5.30;;;4.90;;
5297;SDS011;14738;42.668;23.250;2023-05-27T10:18:55;6.13;;;5.57;;
5297;SDS011;14738;42.668;23.250;2023-05-27T10:21:22;6.60;;;6.00;;
5297;SDS011;14738;42.668;23.250;2023-05-27T10:26:38;7.10;;;6.43;;
5297;SDS011;14738;42.668;23.250;2023-05-27T10:29:06;6.67;;;6.17;;
5297;SDS011;14738;42.668;23.250;2023-05-27T10:31:49;6.50;;;6.00;;
5297;SDS011;14738;42.668;23.250;2023-05-27T10:34:16;7.70;;;5.93;;
5297;SDS011;14738;42.668;23.250;2023-05-27T10:36:45;8.37;;;6.03;;
5297;SDS011;14738;42.668;23.250;2023-05-27T10:41:38;6.50;;;6.03;;
5297;SDS011;14738;42.668;23.250;2023-05-27T10:44:07;8.50;;;6.53;;
5297;SDS011;14738;42.668;23.250;2023-05-27T10:46:43;7.07;;;6.43;;
5297;SDS011;14738;42.668;23.250;2023-05-27T10:49:09;6.67;;;6.17;;
5297;SDS011;14738;42.668;23.250;2023-05-27T10:51:36;7.30;;;6.70;;
5297;SDS011;14738;42.668;23.250;2023-05-27T10:54:05;6.90;;;6.40;;
5297;SDS011;14738;42.668;23.250;2023-05-27T10:56:32;6.50;;;6.00;;
5297;SDS011;14738;42.668;23.250;2023-05-27T10:58:57;11.10;;;6.80;;
5297;SDS011;14738;42.668;23.250;2023-05-27T11:01:26;6.33;;;5.77;;
5297;SDS011;14738;42.668;23.250;2023-05-27T11:03:53;7.73;;;7.10;;
5297;SDS011;14738;42.668;23.250;2023-05-27T11:06:20;7.00;;;6.30;;
5297;SDS011;14738;42.668;23.250;2023-05-27T11:08:45;7.63;;;6.83;;
5297;SDS011;14738;42.668;23.250;2023-05-27T11:11:12;6.83;;;6.20;;
5297;SDS011;14738;42.668;23.250;2023-05-27T11:13:39;6.13;;;5.63;;
5297;SDS011;14738;42.668;23.250;2023-05-27T11:16:08;7.07;;;6.47;;
5297;SDS011;14738;42.668;23.250;2023-05-27T11:21:00;6.80;;;6.30;;
5297;SDS011;14738;42.668;23.250;2023-05-27T11:23:34;7.13;;;6.50;;
5297;SDS011;14738;42.668;23.250;2023-05-27T11:26:11;12.90;;;7.43;;
5297;SDS011;14738;42.668;23.250;2023-05-27T11:31:17;7.43;;;6.70;;
5297;SDS011;14738;42.668;23.250;2023-05-27T11:33:45;6.93;;;6.40;;
5297;SDS011;14738;42.668;23.250;2023-05-27T11:36:14;9.70;;;6.40;;
5297;SDS011;14738;42.668;23.250;2023-05-27T11:38:50;6.47;;;5.90;;
5297;SDS011;14738;42.668;23.250;2023-05-27T11:41:21;7.07;;;6.50;;
5297;SDS011;14738;42.668;23.250;2023-05-27T11:43:52;8.90;;;6.47;;
5297;SDS011;14738;42.668;23.250;2023-05-27T11:46:21;6.37;;;5.87;;
5297;SDS011;14738;42.668;23.250;2023-05-27T11:48:47;7.13;;;6.60;;
5297;SDS011;14738;42.668;23.250;2023-05-27T11:51:16;7.40;;;6.77;;
5297;SDS011;14738;42.668;23.250;2023-05-27T11:53:45;7.30;;;6.80;;
5297;SDS011;14738;42.668;23.250;2023-05-27T11:56:11;6.50;;;6.00;;
5297;SDS011;14738;42.668;23.250;2023-05-27T11:58:37;6.83;;;6.20;;
5297;SDS011;14738;42.668;23.250;2023-05-27T12:01:03;7.50;;;6.90;;
5297;SDS011;14738;42.668;23.250;2023-05-27T12:03:30;7.27;;;6.30;;
5297;SDS011;14738;42.668;23.250;2023-05-27T12:05:56;7.70;;;7.10;;
5297;SDS011;14738;42.668;23.250;2023-05-27T12:08:22;7.07;;;6.57;;
5297;SDS011;14738;42.668;23.250;2023-05-27T12:10:48;7.60;;;6.90;;
5297;SDS011;14738;42.668;23.250;2023-05-27T12:13:18;7.03;;;6.43;;
5297;SDS011;14738;42.668;23.250;2023-05-27T12:15:45;7.20;;;6.70;;
5297;SDS011;14738;42.668;23.250;2023-05-27T12:18:11;6.80;;;6.30;;
5297;SDS011;14738;42.668;23.250;2023-05-27T12:20:36;6.70;;;6.20;;
5297;SDS011;14738;42.668;23.250;2023-05-27T12:23:01;10.47;;;6.10;;
5297;SDS011;14738;42.668;23.250;2023-05-27T12:25:27;7.50;;;6.90;;
5297;SDS011;14738;42.668;23.250;2023-05-27T12:27:52;7.43;;;6.83;;
5297;SDS011;14738;42.668;23.250;2023-05-27T12:30:18;7.53;;;6.50;;
5297;SDS011;14738;42.668;23.250;2023-05-27T12:32:44;6.47;;;5.97;;
5297;SDS011;14738;42.668;23.250;2023-05-27T12:35:09;5.70;;;5.30;;
5297;SDS011;14738;42.668;23.250;2023-05-27T12:37:35;6.20;;;5.70;;
5297;SDS011;14738;42.668;23.250;2023-05-27T12:40:00;6.80;;;6.20;;
5297;SDS011;14738;42.668;23.250;2023-05-27T12:42:29;6.83;;;6.27;;
5297;SDS011;14738;42.668;23.250;2023-05-27T12:44:54;7.57;;;6.87;;
5297;SDS011;14738;42.668;23.250;2023-05-27T12:47:20;6.63;;;6.03;;
5297;SDS011;14738;42.668;23.250;2023-05-27T12:49:46;7.00;;;6.50;;
5297;SDS011;14738;42.668;23.250;2023-05-27T12:52:12;7.50;;;6.83;;
5297;SDS011;14738;42.668;23.250;2023-05-27T12:54:38;7.47;;;6.80;;
5297;SDS011;14738;42.668;23.250;2023-05-27T12:57:03;7.47;;;5.90;;
5297;SDS011;14738;42.668;23.250;2023-05-27T12:59:32;7.57;;;6.97;;
5297;SDS011;14738;42.668;23.250;2023-05-27T13:01:58;7.87;;;7.27;;
5297;SDS011;14738;42.668;23.250;2023-05-27T13:04:24;6.80;;;6.30;;
5297;SDS011;14738;42.668;23.250;2023-05-27T13:06:50;6.80;;;6.20;;
5297;SDS011;14738;42.668;23.250;2023-05-27T13:09:15;6.77;;;6.10;;
5297;SDS011;14738;42.668;23.250;2023-05-27T13:11:41;8.63;;;6.10;;
5297;SDS011;14738;42.668;23.250;2023-05-27T13:14:07;7.73;;;7.13;;
5297;SDS011;14738;42.668;23.250;2023-05-27T13:16:33;6.23;;;5.67;;
5297;SDS011;14738;42.668;23.250;2023-05-27T13:18:58;7.00;;;6.30;;
5297;SDS011;14738;42.668;23.250;2023-05-27T13:21:24;6.40;;;5.90;;
5297;SDS011;14738;42.668;23.250;2023-05-27T13:23:49;6.70;;;6.20;;
5297;SDS011;14738;42.668;23.250;2023-05-27T13:26:15;7.37;;;6.67;;
5297;SDS011;14738;42.668;23.250;2023-05-27T13:28:40;8.17;;;6.20;;
5297;SDS011;14738;42.668;23.250;2023-05-27T13:31:06;7.13;;;6.53;;
5297;SDS011;14738;42.668;23.250;2023-05-27T13:33:32;7.10;;;6.50;;
5297;SDS011;14738;42.668;23.250;2023-05-27T13:35:58;7.00;;;6.40;;
5297;SDS011;14738;42.668;23.250;2023-05-27T13:38:24;6.70;;;6.10;;
5297;SDS011;14738;42.668;23.250;2023-05-27T13:40:50;6.80;;;6.30;;
5297;SDS011;14738;42.668;23.250;2023-05-27T13:43:16;6.53;;;6.03;;
5297;SDS011;14738;42.668;23.250;2023-05-27T13:45:42;6.77;;;6.17;;
5297;SDS011;14738;42.668;23.250;2023-05-27T13:48:07;6.80;;;6.17;;
5297;SDS011;14738;42.668;23.250;2023-05-27T13:50:33;7.00;;;6.33;;
5297;SDS011;14738;42.668;23.250;2023-05-27T13:53:00;7.40;;;6.90;;
5297;SDS011;14738;42.668;23.250;2023-05-27T13:55:26;8.30;;;6.67;;
5297;SDS011;14738;42.668;23.250;2023-05-27T13:57:51;7.20;;;6.57;;
5297;SDS011;14738;42.668;23.250;2023-05-27T14:00:17;6.27;;;5.77;;
5297;SDS011;14738;42.668;23.250;2023-05-27T14:02:42;7.37;;;5.90;;
5297;SDS011;14738;42.668;23.250;2023-05-27T14:05:08;9.37;;;6.63;;
5297;SDS011;14738;42.668;23.250;2023-05-27T14:07:38;6.53;;;6.00;;
5297;SDS011;14738;42.668;23.250;2023-05-27T14:10:05;6.60;;;6.10;;
5297;SDS011;14738;42.668;23.250;2023-05-27T14:12:31;6.53;;;6.07;;
5297;SDS011;14738;42.668;23.250;2023-05-27T14:14:57;5.83;;;5.33;;
5297;SDS011;14738;42.668;23.250;2023-05-27T14:17:22;6.77;;;6.30;;
5297;SDS011;14738;42.668;23.250;2023-05-27T14:19:48;6.37;;;5.87;;
5297;SDS011;14738;42.668;23.250;2023-05-27T14:22:13;6.87;;;6.27;;
5297;SDS011;14738;42.668;23.250;2023-05-27T14:24:39;6.73;;;6.27;;
5297;SDS011;14738;42.668;23.250;2023-05-27T14:27:04;7.07;;;6.37;;
5297;SDS011;14738;42.668;23.250;2023-05-27T14:29:31;6.30;;;5.90;;
5297;SDS011;14738;42.668;23.250;2023-05-27T14:31:57;6.60;;;6.10;;
5297;SDS011;14738;42.668;23.250;2023-05-27T14:34:22;5.80;;;5.30;;
5297;SDS011;14738;42.668;23.250;2023-05-27T14:36:48;6.30;;;5.80;;
5297;SDS011;14738;42.668;23.250;2023-05-27T14:39:13;6.97;;;6.40;;
5297;SDS011;14738;42.668;23.250;2023-05-27T14:41:40;7.30;;;6.57;;
5297;SDS011;14738;42.668;23.250;2023-05-27T14:44:05;9.47;;;6.83;;
5297;SDS011;14738;42.668;23.250;2023-05-27T14:46:31;6.53;;;6.03;;
5297;SDS011;14738;42.668;23.250;2023-05-27T14:48:56;6.17;;;5.73;;
5297;SDS011;14738;42.668;23.250;2023-05-27T14:51:22;6.80;;;6.20;;
5297;SDS011;14738;42.668;23.250;2023-05-27T14:53:47;6.43;;;6.03;;
5297;SDS011;14738;42.668;23.250;2023-05-27T14:56:13;6.30;;;5.70;;